메인 페이지
METAR-TAF:

METAR-TAF

공항 :

오슬로 가르데르모엔 국제공항

오슬로, 노르웨이

위도: 60-12N, 경도: 011-05E, 고도: 208m

현재 날씨관측

예보는 29분 전, 04:20시(UTC)에 발표되었습니다.
남서6kt남남서풍과 서북서풍을 오가는
온도 5°C
습도 65%
기압 1011 hPa
시정 10km 이상
1500m 미만 상공 구름 및 적란운 없음

METAR: ENGM 220420Z 23006KT 200V290 CAVOK 05/M01 Q1011 NOSIG

시각: 06:49 (04:49 UTC)

예보

예보 대상 시간: 22일 00시부터 22일 24시까지 (UTC)
남서8kt
시정 10km 이상
1500m 미만 상공 구름 및 적란운 없음
확률 30% :
일시적
22일 09시부터 22일 15시까지 (UTC)
서남서15kt, 순간 최대 풍속 25kt
전환 중
22일 21시부터 22일 23시까지 (UTC)
고도 1200ft 상공 구름 많음

TAF: ENGM 2200/2224 23008KT CAVOK PROB30 TEMPO 2209/2215 24015G25KT BECMG 2221/2223 BKN012

4,000개 이상의 공항 관측 자료 및 예보 (METAR 및 TAF 보고).

지도상에서 검색 가능한 기상관측소가 노란 점과 빨간 점으로 표시되어 있습니다.

기상관측소 명을 보려면 표시 위로 마우스를 이동하세요.

날씨 관측과 예보를 보려면 클릭하세요.

지도 변경 : 확대하려면 엑스 표시가 있는 녹색 버튼, 축소하려면 빼기 표시가 있는 녹색 버튼, 다음 페이지의 지도를 보려면 녹색 화살표를 클릭하세요.


METAR-TAF: